Matagorda, Texas
Current Conditions -  °F | °C
As of 11:53 PM on Sunday 21 Dec 2014 (Local Time) from KPSX Reporting Station
Overcast Overcast  
Wind Chill: 60°   Ceiling: 3600
Heat Index: 60°   Visibility: 9mi
Dew Point: 59°   Wind: 6mph
Humidity: 96%   Direction: 110°ESE
Pressure: 29.85"   Gusts: NA
Location:  28.69°N, 95.97°W
Report Text: KPSX 220553Z AUTO 11005KT 9SM OVC036 16/15 A2985 RMK AO2 SLP107 T01560150 10167 20144 401670106 58022 $
Loading
Personal Weather Stations






























Interactive Weather Map New forecast layout! Learn more

10-Day Weather Forecast

Advertisements
Track Severe Weather on mobile